Time;durP1;ratioP1;P1;durP2;ratioP2;P2;SDS_P1;SDS_P2;PMS_P1;PMS_P2;Temp;Humidity;BMP_temperature;BMP_pressure;BME280_temperature;BME280_humidity;BME280_pressure;Samples;Min_cycle;Max_cycle;Signal;HPM_P1;HPM_P2
2021/07/24 00:00:25;;;;;;;11.75;10.38;;;;;;;14.86;83.90;101166.59;1056993;28;20056;-79
2021/07/24 00:00:57;;;;;;;14.07;11.10;;;;;;;14.81;83.75;101163.16;1058004;27;20048;-80
2021/07/24 00:01:29;;;;;;;14.20;11.50;;;;;;;14.84;83.54;101164.00;1061174;27;20464;-80
2021/07/24 00:02:01;;;;;;;12.95;10.45;;;;;;;14.85;83.60;101157.06;1061334;27;20047;-80
2021/07/24 00:02:32;;;;;;;12.07;9.68;;;;;;;14.84;83.73;101158.81;1057046;28;20048;-79
2021/07/24 00:03:04;;;;;;;13.65;11.32;;;;;;;14.80;83.76;101164.00;1057186;28;20069;-80
2021/07/24 00:03:37;;;;;;;14.43;10.70;;;;;;;14.83;83.87;101161.41;1053193;28;20060;-80
2021/07/24 00:04:08;;;;;;;14.48;11.15;;;;;;;14.79;83.82;101163.13;1052925;28;20063;-80
2021/07/24 00:04:48;;;;;;;14.18;11.30;;;;;;;14.76;84.15;101157.94;1052855;28;20181;-80
2021/07/24 00:05:20;;;;;;;14.70;11.20;;;;;;;14.77;83.84;101159.66;1054694;28;20044;-79
2021/07/24 00:05:52;;;;;;;13.18;11.35;;;;;;;14.78;84.01;101155.31;1056214;28;20048;-79
2021/07/24 00:06:24;;;;;;;11.63;10.40;;;;;;;14.77;83.98;101148.38;1052881;28;20071;-79
2021/07/24 00:06:59;;;;;;;11.63;10.10;;;;;;;14.72;84.38;101156.16;1053413;28;20055;-80
2021/07/24 00:07:31;;;;;;;15.20;11.40;;;;;;;14.72;84.39;101156.16;1053945;28;20162;-80
2021/07/24 00:08:03;;;;;;;13.02;9.90;;;;;;;14.74;83.98;101150.97;1058061;27;20048;-80
2021/07/24 00:08:34;;;;;;;15.15;11.40;;;;;;;14.75;83.67;101147.50;1057038;28;20419;-80
2021/07/24 00:09:06;;;;;;;13.85;11.18;;;;;;;14.71;83.96;101141.41;1053509;28;20508;-80
2021/07/24 00:09:37;;;;;;;12.32;10.32;;;;;;;14.72;84.23;101144.88;1052672;28;20055;-80
2021/07/24 00:10:09;;;;;;;17.77;11.05;;;;;;;14.69;84.43;101144.88;1049142;28;20063;-80
2021/07/24 00:10:41;;;;;;;14.63;11.07;;;;;;;14.66;84.51;101139.66;1053422;28;20054;-80
2021/07/24 00:11:12;;;;;;;12.55;10.70;;;;;;;14.67;84.44;101144.88;1053297;28;20055;-80
2021/07/24 00:11:44;;;;;;;13.95;10.23;;;;;;;14.67;84.64;101133.59;1057158;28;20052;-80
2021/07/24 00:12:15;;;;;;;16.45;10.32;;;;;;;14.66;84.53;101143.13;1057370;27;20055;-80
2021/07/24 00:12:50;;;;;;;12.15;9.75;;;;;;;14.64;84.39;101138.81;1057653;28;20399;-80
2021/07/24 00:13:21;;;;;;;13.40;10.02;;;;;;;14.65;84.62;101135.31;1057095;28;20048;-80
2021/07/24 00:13:53;;;;;;;14.88;11.90;;;;;;;14.64;84.20;101134.47;1052661;28;20048;-80
2021/07/24 00:14:24;;;;;;;11.98;9.70;;;;;;;14.59;84.47;101136.19;1053576;28;20048;-80
2021/07/24 00:14:57;;;;;;;13.15;10.10;;;;;;;14.61;84.53;101137.03;1057479;28;20098;-79
2021/07/24 00:15:29;;;;;;;14.95;10.63;;;;;;;14.59;84.44;101130.97;1057359;27;20055;-80
2021/07/24 00:16:01;;;;;;;13.40;9.68;;;;;;;14.60;84.59;101137.91;1054346;28;20048;-80
2021/07/24 00:16:32;;;;;;;13.65;11.05;;;;;;;14.58;84.84;101139.66;1057078;28;20491;-79
2021/07/24 00:17:04;;;;;;;13.93;9.65;;;;;;;14.56;85.02;101139.63;1057587;27;20047;-79
2021/07/24 00:17:36;;;;;;;16.58;10.80;;;;;;;14.54;84.59;101136.16;1057690;27;20579;-79
2021/07/24 00:18:08;;;;;;;13.30;10.20;;;;;;;14.57;84.27;101132.69;1061231;27;20043;-80
2021/07/24 00:18:39;;;;;;;12.52;8.90;;;;;;;14.56;84.52;101137.00;1061393;27;20130;-81
2021/07/24 00:19:11;;;;;;;15.98;10.82;;;;;;;14.54;85.07;101137.88;1061264;27;20072;-80
2021/07/24 00:19:42;;;;;;;12.65;9.70;;;;;;;14.48;85.25;101130.94;1060942;27;20065;-80
2021/07/24 00:20:13;;;;;;;11.73;9.82;;;;;;;14.44;85.41;101131.75;1054944;28;20542;-80
2021/07/24 00:20:45;;;;;;;14.52;10.48;;;;;;;14.44;85.37;101126.53;1053301;28;20056;-80
2021/07/24 00:21:17;;;;;;;13.90;10.32;;;;;;;14.42;85.05;101128.28;1057380;27;20055;-80
2021/07/24 00:21:48;;;;;;;14.50;10.35;;;;;;;14.49;84.45;101127.47;1059296;27;20047;-80
2021/07/24 00:22:20;;;;;;;13.90;10.52;;;;;;;14.51;85.16;101130.94;1053327;28;20059;-80
2021/07/24 00:22:51;;;;;;;12.10;10.13;;;;;;;14.49;85.35;101137.00;1057106;28;20054;-80
2021/07/24 00:23:23;;;;;;;13.45;10.55;;;;;;;14.41;85.46;101131.75;1058643;27;20043;-81
2021/07/24 00:23:54;;;;;;;12.30;11.00;;;;;;;14.37;85.69;101131.72;1061338;27;20051;-80
2021/07/24 00:24:25;;;;;;;13.15;10.35;;;;;;;14.38;85.61;101134.31;1061001;27;20053;-80
2021/07/24 00:24:57;;;;;;;14.52;10.35;;;;;;;14.35;85.98;101134.34;1056930;28;20482;-80
2021/07/24 00:25:29;;;;;;;12.10;9.90;;;;;;;14.37;85.63;101135.19;1057205;27;20526;-80
2021/07/24 00:26:01;;;;;;;13.40;10.82;;;;;;;14.41;85.28;101130.84;1061314;27;20495;-80
2021/07/24 00:26:33;;;;;;;13.63;10.82;;;;;;;14.41;85.44;101130.84;1061251;27;20043;-80
2021/07/24 00:27:08;;;;;;;12.88;10.23;;;;;;;14.35;85.77;101133.44;1057098;28;20054;-81
2021/07/24 00:27:39;;;;;;;12.48;11.13;;;;;;;14.33;86.16;101130.84;1057052;28;20039;-80
2021/07/24 00:28:11;;;;;;;17.52;10.88;;;;;;;14.30;85.63;101136.03;1056967;28;20052;-80
2021/07/24 00:28:43;;;;;;;12.40;9.98;;;;;;;14.29;85.59;101129.06;1056780;28;20423;-80
2021/07/24 00:29:14;;;;;;;13.43;9.70;;;;;;;14.28;85.76;101125.59;1052840;28;20543;-80
2021/07/24 00:29:46;;;;;;;18.77;9.90;;;;;;;14.32;85.30;101127.38;1049727;28;20045;-80
2021/07/24 00:30:17;;;;;;;12.75;10.90;;;;;;;14.26;85.96;101123.88;1053290;28;20044;-80
2021/07/24 00:30:52;;;;;;;14.40;10.85;;;;;;;14.22;86.53;101119.50;1052758;28;20044;-80
2021/07/24 00:31:24;;;;;;;13.05;10.52;;;;;;;14.20;86.11;101116.91;1053645;28;20079;-80
2021/07/24 00:31:56;;;;;;;13.30;10.82;;;;;;;14.23;86.38;101124.72;1053596;28;20428;-80
2021/07/24 00:32:28;;;;;;;17.85;11.80;;;;;;;14.24;86.61;101121.28;1053783;28;20056;-80
2021/07/24 00:33:00;;;;;;;16.00;11.52;;;;;;;14.29;86.54;101121.25;1056791;28;20052;-80
2021/07/24 00:33:31;;;;;;;14.98;10.80;;;;;;;14.26;86.22;101116.94;1053511;28;20051;-80
2021/07/24 00:34:03;;;;;;;14.05;11.38;;;;;;;14.28;86.17;101116.94;1053323;28;20048;-80
2021/07/24 00:34:34;;;;;;;13.90;11.35;;;;;;;14.29;85.86;101119.56;1056892;28;20127;-80
2021/07/24 00:35:07;;;;;;;14.20;10.50;;;;;;;14.29;85.97;101116.97;1052730;28;20052;-80
2021/07/24 00:35:38;;;;;;;12.13;10.80;;;;;;;14.31;86.26;101114.34;1049184;28;20048;-80
2021/07/24 00:36:10;;;;;;;13.98;10.70;;;;;;;14.27;86.41;101121.25;1048913;28;20048;-80
2021/07/24 00:36:41;;;;;;;12.60;11.13;;;;;;;14.22;86.75;101120.38;1049091;28;20044;-80
2021/07/24 00:37:19;;;;;;;13.10;11.55;;;;;;;14.22;86.73;101116.91;1052887;28;20044;-80
2021/07/24 00:37:52;;;;;;;12.93;10.82;;;;;;;14.21;86.73;101118.63;1057642;27;20416;-80
2021/07/24 00:38:25;;;;;;;16.05;11.13;;;;;;;14.24;86.58;101123.88;1061342;27;20043;-80
2021/07/24 00:38:56;;;;;;;14.75;11.52;;;;;;;14.24;86.57;101118.66;1061461;27;20413;-80
2021/07/24 00:39:28;;;;;;;15.13;11.25;;;;;;;14.23;86.59;101119.50;1061351;27;20047;-80
2021/07/24 00:39:59;;;;;;;12.65;11.10;;;;;;;14.25;86.55;101125.59;1061338;27;20047;-80
2021/07/24 00:40:37;;;;;;;13.45;11.68;;;;;;;14.25;86.24;101119.53;1061036;27;20059;-80
2021/07/24 00:41:16;;;;;;;11.93;9.65;;;;;;;14.24;86.40;101117.81;1061208;27;20047;-80
2021/07/24 00:41:52;;;;;;;12.25;10.23;;;;;;;14.25;86.15;101116.94;1057084;28;20506;-80
2021/07/24 00:42:25;;;;;;;15.23;11.02;;;;;;;14.19;86.71;101116.91;1059994;27;20053;-80
2021/07/24 00:42:58;;;;;;;16.02;11.18;;;;;;;14.25;86.34;101115.19;1056870;28;20052;-80
2021/07/24 00:43:33;;;;;;;12.18;10.85;;;;;;;14.26;86.21;101123.88;1058369;27;20055;-80
2021/07/24 00:44:06;;;;;;;12.68;10.70;;;;;;;14.26;86.56;101116.06;1061136;27;20100;-80
2021/07/24 00:44:38;;;;;;;16.38;12.02;;;;;;;14.26;86.43;101118.66;1061267;27;20043;-80
2021/07/24 00:45:13;;;;;;;14.23;10.18;;;;;;;14.28;86.44;101122.13;1061047;27;20051;-80
2021/07/24 00:45:47;;;;;;;12.77;10.55;;;;;;;14.28;86.11;101116.94;1061014;27;20043;-80
2021/07/24 00:46:21;;;;;;;13.02;9.55;;;;;;;14.33;86.25;101115.22;1056721;28;20055;-80
2021/07/24 00:46:55;;;;;;;15.48;12.38;;;;;;;14.30;86.52;101112.63;1054400;28;20102;-80
2021/07/24 00:47:39;;;;;;;14.98;11.45;;;;;;;14.24;86.61;101112.59;1052660;28;20507;-80
2021/07/24 00:48:17;;;;;;;14.48;10.85;;;;;;;14.29;86.57;101116.97;1055522;28;20065;-80
2021/07/24 00:48:49;;;;;;;17.02;11.52;;;;;;;14.27;86.19;101115.19;1057014;28;20051;-80
2021/07/24 00:49:22;;;;;;;14.07;10.73;;;;;;;14.27;86.41;101112.59;1055881;28;20192;-80
2021/07/24 00:49:57;;;;;;;13.25;10.50;;;;;;;14.21;87.01;101113.44;1052300;28;20047;-80
2021/07/24 00:50:29;;;;;;;16.27;11.73;;;;;;;14.18;87.23;101113.44;1048653;28;20503;-80
2021/07/24 00:51:00;;;;;;;12.18;10.90;;;;;;;14.20;86.81;101114.31;1050538;28;20048;-80
2021/07/24 00:51:33;;;;;;;15.40;11.60;;;;;;;14.23;86.79;101110.81;1053820;28;20542;-80
2021/07/24 00:52:04;;;;;;;13.30;10.68;;;;;;;14.22;86.95;101107.38;1056814;28;20047;-80
2021/07/24 00:52:40;;;;;;;13.90;12.10;;;;;;;14.28;87.08;101106.50;1053276;28;20048;-81
2021/07/24 00:53:14;;;;;;;17.60;11.85;;;;;;;14.26;87.02;101111.72;1056841;28;20048;-80
2021/07/24 00:53:45;;;;;;;15.32;11.55;;;;;;;14.26;87.13;101109.13;1052689;28;20052;-79
2021/07/24 00:54:17;;;;;;;15.10;11.65;;;;;;;14.26;87.02;101116.06;1054856;28;20048;-80
2021/07/24 00:54:48;;;;;;;14.80;11.68;;;;;;;14.27;87.24;101110.84;1052584;28;20055;-80
2021/07/24 00:55:19;;;;;;;15.60;11.73;;;;;;;14.27;86.54;101110.84;1053213;28;20044;-80
2021/07/24 00:55:52;;;;;;;13.45;10.25;;;;;;;14.29;86.57;101116.06;1052608;28;20071;-80
2021/07/24 00:56:27;;;;;;;14.05;12.27;;;;;;;14.33;86.52;101113.47;1053208;28;20508;-80
2021/07/24 00:56:58;;;;;;;15.35;12.32;;;;;;;14.34;86.40;101114.34;1056824;28;20051;-80
2021/07/24 00:57:29;;;;;;;17.38;13.48;;;;;;;14.33;86.66;101108.28;1054686;28;20044;-81
2021/07/24 00:58:24;;;;;;;14.18;10.85;;;;;;;14.36;86.65;101107.44;1056786;28;20050;-80
2021/07/24 00:58:56;;;;;;;13.57;11.55;;;;;;;14.27;87.03;101108.25;1060342;27;20050;-80
2021/07/24 00:59:28;;;;;;;16.25;11.52;;;;;;;14.28;87.32;101109.13;1056860;28;20062;-80
2021/07/24 00:59:59;;;;;;;14.23;10.88;;;;;;;14.30;86.90;101104.81;1056376;28;20044;-80
2021/07/24 01:00:30;;;;;;;16.48;12.07;;;;;;;14.30;86.91;101107.41;1052538;28;20051;-80
2021/07/24 01:01:04;;;;;;;13.27;11.82;;;;;;;14.30;86.87;101110.00;1048983;28;20049;-80
2021/07/24 01:01:41;;;;;;;15.30;11.35;;;;;;;14.29;86.88;101103.94;1053479;28;20127;-80
2021/07/24 01:02:13;;;;;;;13.30;11.30;;;;;;;14.33;86.53;101105.66;1058371;27;20047;-80
2021/07/24 01:02:45;;;;;;;19.80;12.32;;;;;;;14.29;87.02;101103.94;1061167;27;20051;-80
2021/07/24 01:03:20;;;;;;;16.15;12.48;;;;;;;14.30;86.97;101107.41;1061206;27;20055;-80
2021/07/24 01:03:51;;;;;;;15.77;11.98;;;;;;;14.28;87.14;101098.72;1056846;28;20055;-80
2021/07/24 01:04:22;;;;;;;17.17;12.63;;;;;;;14.27;87.17;101104.78;1052533;28;20060;-80
2021/07/24 01:04:54;;;;;;;17.17;11.23;;;;;;;14.27;87.39;101102.19;1052701;28;20070;-80
2021/07/24 01:05:25;;;;;;;15.93;12.00;;;;;;;14.28;86.96;101096.09;1053876;28;20044;-80
2021/07/24 01:05:58;;;;;;;13.18;11.23;;;;;;;14.29;86.94;101098.75;1061076;27;20047;-80
2021/07/24 01:06:31;;;;;;;19.88;13.13;;;;;;;14.27;87.26;101091.78;1060873;27;20054;-80
2021/07/24 01:07:04;;;;;;;15.35;12.30;;;;;;;14.29;87.00;101090.94;1057346;27;20058;-80
2021/07/24 01:07:40;;;;;;;13.63;11.20;;;;;;;14.30;87.30;101099.59;1056894;28;20052;-80
2021/07/24 01:08:12;;;;;;;15.55;11.40;;;;;;;14.28;86.93;101093.50;1056819;28;20043;-80
2021/07/24 01:08:44;;;;;;;13.27;11.48;;;;;;;14.28;86.91;101093.50;1056698;28;20039;-80
2021/07/24 01:09:16;;;;;;;12.55;9.98;;;;;;;14.26;86.72;101092.63;1058281;28;20059;-80
2021/07/24 01:09:47;;;;;;;12.90;11.25;;;;;;;14.22;86.76;101101.28;1061105;27;20433;-80
2021/07/24 01:10:19;;;;;;;18.50;12.18;;;;;;;14.18;87.24;101092.63;1061107;27;20050;-80
2021/07/24 01:10:54;;;;;;;14.77;12.32;;;;;;;14.19;87.46;101104.75;1061052;27;20047;-80
2021/07/24 01:11:26;;;;;;;15.77;11.23;;;;;;;14.11;87.77;101087.38;1061286;27;20043;-80
2021/07/24 01:11:58;;;;;;;15.00;11.90;;;;;;;14.13;87.54;101102.13;1060951;27;20054;-80
2021/07/24 01:12:32;;;;;;;17.40;14.23;;;;;;;14.15;87.92;101099.53;1061130;27;20043;-80
2021/07/24 01:13:05;;;;;;;17.13;12.25;;;;;;;14.17;87.75;101092.59;1056556;28;20134;-80
2021/07/24 01:13:38;;;;;;;17.52;12.55;;;;;;;14.15;87.67;101091.72;1056691;28;20069;-80
2021/07/24 01:14:11;;;;;;;15.68;12.30;;;;;;;14.16;87.69;101093.47;1058226;27;20125;-80
2021/07/24 01:14:43;;;;;;;17.52;12.23;;;;;;;14.15;87.62;101096.94;1056635;28;20050;-80
2021/07/24 01:15:14;;;;;;;13.63;10.50;;;;;;;14.14;87.84;101100.41;1056602;28;20047;-80
2021/07/24 01:15:47;;;;;;;13.95;10.90;;;;;;;14.11;87.56;101097.78;1052678;28;20048;-80
2021/07/24 01:16:18;;;;;;;17.98;11.27;;;;;;;14.12;87.55;101091.69;1053357;28;20127;-80
2021/07/24 01:16:50;;;;;;;16.75;11.77;;;;;;;14.12;87.26;101091.69;1057915;27;20523;-80
2021/07/24 01:17:21;;;;;;;12.98;10.90;;;;;;;14.11;87.71;101090.84;1060914;27;20062;-80
2021/07/24 01:17:53;;;;;;;17.63;12.88;;;;;;;14.11;87.22;101089.97;1060773;27;20047;-80
2021/07/24 01:18:25;;;;;;;16.92;11.65;;;;;;;14.10;87.48;101086.50;1061044;27;20062;-80
2021/07/24 01:18:56;;;;;;;15.43;11.75;;;;;;;14.11;87.65;101084.75;1056828;28;20047;-80
2021/07/24 01:19:28;;;;;;;15.63;12.57;;;;;;;14.09;87.96;101078.69;1058376;27;20388;-80
2021/07/24 01:20:03;;;;;;;18.23;12.60;;;;;;;14.04;88.40;101079.53;1060366;27;20039;-80
2021/07/24 01:20:34;;;;;;;19.20;12.30;;;;;;;14.09;88.26;101081.28;1052588;28;20055;-80
2021/07/24 01:21:08;;;;;;;19.30;10.98;;;;;;;14.10;88.18;101081.28;1052526;28;20515;-80
2021/07/24 01:21:40;;;;;;;16.10;11.98;;;;;;;14.11;88.06;101077.81;1053461;28;20411;-80
2021/07/24 01:22:12;;;;;;;13.88;11.85;;;;;;;14.06;88.16;101080.41;1053458;28;20047;-80
2021/07/24 01:22:43;;;;;;;15.05;11.73;;;;;;;14.04;88.26;101083.88;1053526;28;20058;-80
2021/07/24 01:23:17;;;;;;;18.50;12.57;;;;;;;14.01;88.35;101087.34;1056498;28;20055;-80
2021/07/24 01:23:48;;;;;;;15.80;11.50;;;;;;;13.99;89.21;101078.66;1057558;28;20043;-81
2021/07/24 01:24:21;;;;;;;16.02;12.02;;;;;;;14.01;89.07;101084.75;1057754;27;20051;-81
2021/07/24 01:24:52;;;;;;;14.52;12.38;;;;;;;14.01;88.73;101081.25;1056818;28;20051;-81
2021/07/24 01:25:24;;;;;;;13.70;11.50;;;;;;;14.01;88.61;101082.16;1056527;28;20067;-80
2021/07/24 01:25:56;;;;;;;14.38;12.07;;;;;;;14.01;88.53;101081.25;1053205;28;20380;-80
2021/07/24 01:26:30;;;;;;;16.67;12.02;;;;;;;14.01;88.57;101081.25;1053030;28;20044;-80
2021/07/24 01:27:09;;;;;;;16.25;12.40;;;;;;;13.94;88.76;101075.16;1056666;28;20059;-81
2021/07/24 01:27:42;;;;;;;15.80;11.60;;;;;;;13.97;88.54;101072.56;1058343;27;20059;-81
2021/07/24 01:28:22;;;;;;;15.15;12.43;;;;;;;13.97;88.84;101075.19;1056580;28;20044;-81
2021/07/24 01:28:53;;;;;;;14.20;11.18;;;;;;;13.97;88.92;101075.19;1056718;28;20074;-81
2021/07/24 01:29:25;;;;;;;18.02;11.57;;;;;;;13.95;88.92;101071.69;1056860;28;20059;-81
2021/07/24 01:29:56;;;;;;;16.27;12.43;;;;;;;13.99;88.67;101067.38;1058029;27;20055;-81
2021/07/24 01:30:28;;;;;;;17.30;11.32;;;;;;;13.96;88.39;101063.03;1061056;27;20434;-81
2021/07/24 01:31:02;;;;;;;17.02;11.60;;;;;;;13.96;88.27;101067.38;1060885;27;20039;-81
2021/07/24 01:31:33;;;;;;;18.65;12.82;;;;;;;13.89;88.96;101060.38;1060961;27;20172;-81
2021/07/24 01:32:06;;;;;;;15.90;12.70;;;;;;;13.91;89.01;101061.28;1056908;28;20055;-81
2021/07/24 01:32:37;;;;;;;18.88;11.73;;;;;;;13.92;88.67;101060.41;1052584;28;20052;-81
2021/07/24 01:33:10;;;;;;;14.90;12.45;;;;;;;13.90;89.20;101059.53;1048896;28;20059;-81
2021/07/24 01:33:41;;;;;;;16.80;12.93;;;;;;;13.93;89.09;101063.00;1048953;28;20044;-81
2021/07/24 01:34:13;;;;;;;16.00;12.15;;;;;;;13.92;88.96;101056.06;1052482;28;20044;-81
2021/07/24 01:34:45;;;;;;;15.13;11.70;;;;;;;13.92;88.75;101063.88;1053059;28;20496;-80
2021/07/24 01:35:17;;;;;;;17.00;11.95;;;;;;;13.90;89.12;101055.22;1053200;28;20052;-81
2021/07/24 01:35:50;;;;;;;16.85;12.07;;;;;;;13.89;89.15;101057.78;1056719;28;20044;-80
2021/07/24 01:36:21;;;;;;;17.02;11.60;;;;;;;13.85;89.53;101056.06;1053198;28;20083;-80
2021/07/24 01:36:53;;;;;;;15.73;12.38;;;;;;;13.87;88.99;101060.38;1057375;27;20048;-81
2021/07/24 01:37:24;;;;;;;16.25;12.20;;;;;;;13.88;89.24;101049.13;1056657;28;20430;-80
2021/07/24 01:37:55;;;;;;;13.05;11.60;;;;;;;13.85;89.61;101053.44;1055304;28;20047;-81
2021/07/24 01:38:28;;;;;;;13.02;11.43;;;;;;;13.85;89.80;101056.06;1052974;28;20518;-81
2021/07/24 01:39:00;;;;;;;15.48;12.35;;;;;;;13.81;90.04;101047.34;1057253;27;20047;-81
2021/07/24 01:39:32;;;;;;;15.32;12.40;;;;;;;13.83;89.84;101050.81;1060928;27;20122;-80
2021/07/24 01:40:04;;;;;;;14.85;12.45;;;;;;;13.81;89.77;101049.94;1060785;27;20047;-81
2021/07/24 01:40:38;;;;;;;16.00;13.15;;;;;;;13.85;89.80;101049.13;1056770;28;20043;-80
2021/07/24 01:41:11;;;;;;;15.63;11.55;;;;;;;13.84;89.69;101047.38;1052368;28;20063;-80
2021/07/24 01:41:44;;;;;;;16.02;11.43;;;;;;;13.85;89.65;101051.72;1049314;28;20049;-80
2021/07/24 01:42:17;;;;;;;16.92;12.32;;;;;;;13.86;89.59;101048.25;1049449;28;20485;-81
2021/07/24 01:42:49;;;;;;;15.88;11.77;;;;;;;13.89;89.01;101056.03;1049111;28;20044;-81
2021/07/24 01:43:20;;;;;;;17.55;12.23;;;;;;;13.89;89.57;101050.84;1052642;28;20123;-80
2021/07/24 01:43:52;;;;;;;15.32;11.80;;;;;;;13.91;89.32;101053.47;1056806;28;20050;-80
2021/07/24 01:44:24;;;;;;;16.73;13.48;;;;;;;13.92;89.37;101048.28;1056971;27;20047;-80
2021/07/24 01:44:56;;;;;;;16.45;12.38;;;;;;;13.89;89.60;101048.25;1061056;27;20054;-80
2021/07/24 01:45:27;;;;;;;17.25;13.60;;;;;;;13.91;89.21;101050.88;1056745;28;20047;-80
2021/07/24 01:45:59;;;;;;;15.27;12.98;;;;;;;13.88;89.41;101051.72;1049822;28;20389;-80
2021/07/24 01:46:31;;;;;;;17.58;13.77;;;;;;;13.89;89.68;101047.38;1048251;28;20059;-81
2021/07/24 01:47:03;;;;;;;17.35;12.98;;;;;;;13.87;89.86;101044.78;1044814;28;20045;-81
2021/07/24 01:47:36;;;;;;;23.48;13.57;;;;;;;13.87;89.71;101039.56;1045298;28;20464;-81
2021/07/24 01:48:13;;;;;;;19.80;12.50;;;;;;;13.91;89.27;101041.34;1053322;28;20044;-82
2021/07/24 01:52:46;;;;;;;14.75;10.80;;;;;;;13.84;89.96;101034.38;1061246;27;20047;-81
2021/07/24 01:53:20;;;;;;;16.67;12.30;;;;;;;13.86;89.87;101032.66;1057024;28;20050;-81
2021/07/24 01:53:56;;;;;;;14.57;11.60;;;;;;;13.85;89.54;101023.09;1056592;28;20055;-81
2021/07/24 01:54:32;;;;;;;19.50;12.15;;;;;;;13.86;90.05;101027.44;1056010;28;20058;-81
2021/07/24 01:55:04;;;;;;;18.90;13.35;;;;;;;13.81;89.84;101023.94;1052412;28;20047;-81
2021/07/24 01:55:42;;;;;;;15.35;11.95;;;;;;;13.80;90.00;101022.22;1049945;28;20044;-81
2021/07/24 01:56:17;;;;;;;16.10;12.55;;;;;;;13.79;90.15;101018.75;1054254;28;20047;-81
2021/07/24 01:56:49;;;;;;;13.95;11.88;;;;;;;13.78;90.41;101021.31;1054416;28;20404;-81
2021/07/24 01:57:22;;;;;;;14.63;12.07;;;;;;;13.78;90.32;101022.22;1054197;28;20058;-81
2021/07/24 01:57:55;;;;;;;16.75;13.05;;;;;;;13.81;90.19;101020.47;1056605;28;20074;-81
2021/07/24 01:58:32;;;;;;;17.85;13.50;;;;;;;13.77;90.40;101023.06;1057617;27;20047;-82
2021/07/24 01:59:03;;;;;;;18.40;13.68;;;;;;;13.75;90.44;101018.72;1060803;27;20043;-82
2021/07/24 01:59:40;;;;;;;16.95;12.57;;;;;;;13.77;90.44;101019.59;1056565;28;20043;-81
2021/07/24 02:00:13;;;;;;;19.17;14.23;;;;;;;13.75;90.73;101021.31;1058660;27;20077;-81
2021/07/24 02:00:59;;;;;;;18.05;12.80;;;;;;;13.76;90.83;101023.91;1056537;28;20070;-81
2021/07/24 02:01:32;;;;;;;17.75;13.18;;;;;;;13.75;91.11;101027.38;1055827;28;20055;-80
2021/07/24 02:02:04;;;;;;;17.45;13.30;;;;;;;13.76;90.73;101026.53;1052301;28;20044;-82
2021/07/24 02:02:40;;;;;;;17.58;13.38;;;;;;;13.78;91.02;101026.53;1055519;28;20048;-81
2021/07/24 02:03:14;;;;;;;19.60;13.90;;;;;;;13.78;90.92;101029.13;1053561;28;20052;-81
2021/07/24 02:03:51;;;;;;;18.55;13.43;;;;;;;13.78;90.36;101022.22;1053963;28;20044;-81
2021/07/24 02:04:27;;;;;;;18.20;13.18;;;;;;;13.81;90.54;101021.34;1052520;28;20051;-81
2021/07/24 02:05:01;;;;;;;18.27;13.35;;;;;;;13.80;90.60;101027.41;1048334;28;20048;-81
2021/07/24 02:05:43;;;;;;;16.00;12.73;;;;;;;13.81;91.03;101023.09;1047345;28;20051;-81
2021/07/24 02:06:16;;;;;;;19.33;13.90;;;;;;;13.84;90.06;101015.28;1055300;28;20225;-81
2021/07/24 02:06:49;;;;;;;16.17;12.18;;;;;;;13.84;90.33;101016.19;1054865;28;20040;-81
2021/07/24 02:07:23;;;;;;;18.48;12.70;;;;;;;13.84;90.24;101021.38;1056180;28;20063;-81
2021/07/24 02:08:01;;;;;;;16.73;13.18;;;;;;;13.79;90.29;101020.47;1052464;28;20051;-81
2021/07/24 02:08:34;;;;;;;14.70;12.18;;;;;;;13.79;90.41;101015.28;1052471;28;20051;-81
2021/07/24 02:09:05;;;;;;;16.60;11.63;;;;;;;13.76;89.77;101017.84;1053773;28;20424;-81
2021/07/24 02:09:37;;;;;;;24.50;13.70;;;;;;;13.77;90.04;101017.84;1054075;28;20048;-81
2021/07/24 02:10:09;;;;;;;16.52;13.02;;;;;;;13.74;90.46;101019.59;1052082;28;20048;-81
2021/07/24 02:10:42;;;;;;;22.73;13.30;;;;;;;13.75;90.46;101018.72;1052888;28;20056;-81
2021/07/24 02:11:14;;;;;;;15.75;12.02;;;;;;;13.76;90.25;101017.84;1052481;28;20059;-81
2021/07/24 02:11:46;;;;;;;16.67;12.45;;;;;;;13.76;90.40;101026.53;1049103;28;20049;-81
2021/07/24 02:12:18;;;;;;;15.20;11.88;;;;;;;13.74;90.56;101023.06;1053141;28;20488;-81
2021/07/24 02:12:49;;;;;;;15.38;12.25;;;;;;;13.76;90.78;101026.53;1057199;28;20043;-81
2021/07/24 02:13:21;;;;;;;16.15;12.32;;;;;;;13.76;90.96;101025.66;1057267;28;20509;-81
2021/07/24 02:13:53;;;;;;;16.98;14.10;;;;;;;13.75;90.98;101026.53;1055789;28;20052;-81
2021/07/24 02:14:24;;;;;;;20.50;13.68;;;;;;;13.74;91.06;101030.00;1056673;28;20055;-81
2021/07/24 02:14:57;;;;;;;17.08;13.55;;;;;;;13.76;90.72;101025.66;1056629;28;20044;-81
2021/07/24 02:15:28;;;;;;;16.88;13.70;;;;;;;13.78;90.87;101030.03;1056472;28;20085;-81
2021/07/24 02:16:00;;;;;;;18.50;13.35;;;;;;;13.80;90.92;101035.22;1056518;28;20058;-81
2021/07/24 02:16:33;;;;;;;17.40;13.20;;;;;;;13.80;90.56;101035.22;1053087;28;20052;-81
2021/07/24 02:17:05;;;;;;;16.08;12.88;;;;;;;13.80;90.56;101030.00;1056580;28;20135;-81
2021/07/24 02:17:38;;;;;;;19.15;15.05;;;;;;;13.77;90.96;101032.59;1052523;28;20059;-81
2021/07/24 02:18:15;;;;;;;19.10;13.52;;;;;;;13.77;91.11;101033.47;1053304;28;20052;-82
2021/07/24 02:18:48;;;;;;;18.13;13.70;;;;;;;13.75;90.86;101032.59;1055719;28;20492;-81
2021/07/24 02:19:20;;;;;;;17.90;13.23;;;;;;;13.74;90.79;101033.47;1057259;28;20050;-81
2021/07/24 02:19:53;;;;;;;17.65;13.20;;;;;;;13.78;90.74;101039.53;1058154;28;20043;-81
2021/07/24 02:20:25;;;;;;;16.70;13.20;;;;;;;13.77;90.80;101033.47;1054063;28;20044;-81
2021/07/24 02:20:56;;;;;;;18.42;13.15;;;;;;;13.79;90.75;101033.50;1056640;28;20047;-81
2021/07/24 02:21:31;;;;;;;16.30;13.00;;;;;;;13.77;90.80;101038.66;1057266;28;20399;-81
2021/07/24 02:22:03;;;;;;;24.17;13.38;;;;;;;13.75;90.60;101034.31;1052421;28;20051;-81
2021/07/24 02:22:34;;;;;;;17.60;13.50;;;;;;;13.77;90.89;101033.47;1052509;28;20048;-81
2021/07/24 02:23:06;;;;;;;17.33;13.93;;;;;;;13.79;90.87;101036.09;1053128;28;20048;-81
2021/07/24 02:23:37;;;;;;;15.70;12.23;;;;;;;13.77;90.73;101028.25;1055803;28;20479;-82
2021/07/24 02:24:09;;;;;;;14.30;11.38;;;;;;;13.73;90.90;101038.66;1056416;28;20043;-82
2021/07/24 02:24:40;;;;;;;16.60;12.57;;;;;;;13.68;91.57;101040.38;1056234;28;20047;-81
2021/07/24 02:25:12;;;;;;;18.35;12.85;;;;;;;13.65;91.68;101032.53;1052825;28;20059;-81
2021/07/24 02:25:44;;;;;;;16.73;12.80;;;;;;;13.71;91.25;101038.63;1052484;28;20048;-81
2021/07/24 02:26:15;;;;;;;18.58;12.68;;;;;;;13.70;91.27;101036.91;1048580;28;20437;-81
2021/07/24 02:26:47;;;;;;;17.63;13.40;;;;;;;13.72;90.99;101035.16;1048731;28;20520;-81
2021/07/24 02:27:18;;;;;;;21.85;13.55;;;;;;;13.75;91.39;101034.31;1052977;28;20057;-81
2021/07/24 02:27:51;;;;;;;19.23;13.63;;;;;;;13.77;91.14;101040.38;1052332;28;20438;-81
2021/07/24 02:28:22;;;;;;;17.83;12.95;;;;;;;13.76;90.81;101036.91;1052640;28;20048;-82
2021/07/24 02:28:54;;;;;;;21.25;13.60;;;;;;;13.75;91.03;101031.72;1052481;28;20062;-82
2021/07/24 02:29:25;;;;;;;17.60;13.02;;;;;;;13.78;91.13;101039.53;1052839;28;20052;-82
2021/07/24 02:29:57;;;;;;;16.02;13.13;;;;;;;13.74;91.19;101037.78;1052605;28;20043;-81
2021/07/24 02:30:28;;;;;;;17.92;13.30;;;;;;;13.75;90.94;101036.94;1052189;28;20060;-81
2021/07/24 02:31:00;;;;;;;20.60;13.63;;;;;;;13.75;90.72;101034.31;1052466;28;20048;-81
2021/07/24 02:31:31;;;;;;;18.67;13.57;;;;;;;13.76;90.76;101036.06;1053787;28;20048;-81
2021/07/24 02:32:03;;;;;;;18.77;13.23;;;;;;;13.76;90.76;101031.72;1052381;28;20074;-81
2021/07/24 02:32:35;;;;;;;20.75;13.02;;;;;;;13.75;91.18;101036.94;1052697;28;20047;-81
2021/07/24 02:33:06;;;;;;;20.13;13.48;;;;;;;13.70;91.79;101036.91;1056339;28;20585;-81